sensor_id;sensor_type;location;lat;lon;timestamp;P1;durP1;ratioP1;P2;durP2;ratioP2
635;SDS011;302;50.206;8.196;2023-11-19T00:00:06;1.77;;;1.67;;
635;SDS011;302;50.206;8.196;2023-11-19T00:02:35;1.70;;;1.60;;
635;SDS011;302;50.206;8.196;2023-11-19T00:05:01;2.60;;;1.40;;
635;SDS011;302;50.206;8.196;2023-11-19T00:07:26;1.77;;;1.67;;
635;SDS011;302;50.206;8.196;2023-11-19T00:09:51;1.83;;;1.65;;
635;SDS011;302;50.206;8.196;2023-11-19T00:12:16;3.22;;;1.77;;
635;SDS011;302;50.206;8.196;2023-11-19T00:14:41;2.17;;;2.00;;
635;SDS011;302;50.206;8.196;2023-11-19T00:17:06;2.20;;;2.10;;
635;SDS011;302;50.206;8.196;2023-11-19T00:19:31;2.30;;;2.20;;
635;SDS011;302;50.206;8.196;2023-11-19T00:21:57;1.70;;;1.60;;
635;SDS011;302;50.206;8.196;2023-11-19T00:24:22;1.90;;;1.80;;
635;SDS011;302;50.206;8.196;2023-11-19T00:26:47;1.87;;;1.77;;
635;SDS011;302;50.206;8.196;2023-11-19T00:29:12;1.92;;;1.70;;
635;SDS011;302;50.206;8.196;2023-11-19T00:31:38;2.30;;;2.10;;
635;SDS011;302;50.206;8.196;2023-11-19T00:34:04;2.40;;;2.20;;
635;SDS011;302;50.206;8.196;2023-11-19T00:36:31;2.38;;;2.20;;
635;SDS011;302;50.206;8.196;2023-11-19T00:38:56;2.72;;;2.55;;
635;SDS011;302;50.206;8.196;2023-11-19T00:41:21;3.10;;;2.77;;
635;SDS011;302;50.206;8.196;2023-11-19T00:43:47;2.30;;;2.20;;
635;SDS011;302;50.206;8.196;2023-11-19T00:46:13;2.57;;;2.37;;
635;SDS011;302;50.206;8.196;2023-11-19T00:48:38;2.33;;;2.13;;
635;SDS011;302;50.206;8.196;2023-11-19T00:51:04;3.53;;;3.23;;
635;SDS011;302;50.206;8.196;2023-11-19T00:53:29;2.57;;;2.37;;
635;SDS011;302;50.206;8.196;2023-11-19T00:55:54;3.40;;;2.47;;
635;SDS011;302;50.206;8.196;2023-11-19T00:58:19;2.50;;;2.30;;
635;SDS011;302;50.206;8.196;2023-11-19T01:00:44;2.37;;;2.17;;
635;SDS011;302;50.206;8.196;2023-11-19T01:03:10;2.50;;;2.30;;
635;SDS011;302;50.206;8.196;2023-11-19T01:05:35;2.20;;;2.10;;
635;SDS011;302;50.206;8.196;2023-11-19T01:08:00;2.30;;;2.20;;
635;SDS011;302;50.206;8.196;2023-11-19T01:10:25;2.30;;;2.17;;
635;SDS011;302;50.206;8.196;2023-11-19T01:12:51;2.30;;;2.10;;
635;SDS011;302;50.206;8.196;2023-11-19T01:15:16;2.47;;;2.27;;
635;SDS011;302;50.206;8.196;2023-11-19T01:17:43;2.40;;;2.20;;
635;SDS011;302;50.206;8.196;2023-11-19T01:20:09;2.40;;;2.20;;
635;SDS011;302;50.206;8.196;2023-11-19T01:22:37;2.28;;;2.10;;
635;SDS011;302;50.206;8.196;2023-11-19T01:25:02;2.78;;;2.58;;
635;SDS011;302;50.206;8.196;2023-11-19T01:27:27;2.40;;;2.20;;
635;SDS011;302;50.206;8.196;2023-11-19T01:29:53;2.33;;;2.13;;
635;SDS011;302;50.206;8.196;2023-11-19T01:32:18;2.30;;;2.20;;
635;SDS011;302;50.206;8.196;2023-11-19T01:34:43;1.83;;;1.73;;
635;SDS011;302;50.206;8.196;2023-11-19T01:37:08;1.92;;;1.83;;
635;SDS011;302;50.206;8.196;2023-11-19T01:39:35;2.22;;;2.05;;
635;SDS011;302;50.206;8.196;2023-11-19T01:42:00;1.70;;;1.60;;
635;SDS011;302;50.206;8.196;2023-11-19T01:44:25;2.45;;;2.25;;
635;SDS011;302;50.206;8.196;2023-11-19T01:46:50;2.47;;;2.27;;
635;SDS011;302;50.206;8.196;2023-11-19T01:49:16;2.37;;;2.17;;
635;SDS011;302;50.206;8.196;2023-11-19T01:51:42;2.70;;;2.50;;
635;SDS011;302;50.206;8.196;2023-11-19T01:54:07;2.40;;;2.20;;
635;SDS011;302;50.206;8.196;2023-11-19T01:56:33;3.00;;;2.80;;
635;SDS011;302;50.206;8.196;2023-11-19T01:58:58;3.20;;;3.00;;
635;SDS011;302;50.206;8.196;2023-11-19T02:01:24;3.60;;;3.30;;
635;SDS011;302;50.206;8.196;2023-11-19T02:03:49;3.73;;;3.47;;
635;SDS011;302;50.206;8.196;2023-11-19T02:06:14;4.40;;;4.07;;
635;SDS011;302;50.206;8.196;2023-11-19T02:08:40;3.47;;;3.17;;
635;SDS011;302;50.206;8.196;2023-11-19T02:11:05;4.10;;;3.80;;
635;SDS011;302;50.206;8.196;2023-11-19T02:13:32;3.72;;;3.42;;
635;SDS011;302;50.206;8.196;2023-11-19T02:15:57;3.63;;;3.33;;
635;SDS011;302;50.206;8.196;2023-11-19T02:18:23;3.25;;;3.00;;
635;SDS011;302;50.206;8.196;2023-11-19T02:20:49;3.15;;;2.90;;
635;SDS011;302;50.206;8.196;2023-11-19T02:23:14;3.10;;;2.90;;
635;SDS011;302;50.206;8.196;2023-11-19T02:25:40;3.47;;;3.27;;
635;SDS011;302;50.206;8.196;2023-11-19T02:28:05;3.37;;;3.07;;
635;SDS011;302;50.206;8.196;2023-11-19T02:30:31;3.27;;;3.07;;
635;SDS011;302;50.206;8.196;2023-11-19T02:32:57;3.97;;;3.40;;
635;SDS011;302;50.206;8.196;2023-11-19T02:35:23;3.33;;;3.13;;
635;SDS011;302;50.206;8.196;2023-11-19T02:37:49;3.20;;;3.00;;
635;SDS011;302;50.206;8.196;2023-11-19T02:40:14;3.20;;;2.90;;
635;SDS011;302;50.206;8.196;2023-11-19T02:42:39;3.43;;;3.20;;
635;SDS011;302;50.206;8.196;2023-11-19T02:45:05;3.10;;;2.90;;
635;SDS011;302;50.206;8.196;2023-11-19T02:47:31;2.90;;;2.60;;
635;SDS011;302;50.206;8.196;2023-11-19T02:49:56;2.40;;;2.23;;
635;SDS011;302;50.206;8.196;2023-11-19T02:52:22;3.17;;;2.97;;
635;SDS011;302;50.206;8.196;2023-11-19T02:54:47;3.47;;;2.73;;
635;SDS011;302;50.206;8.196;2023-11-19T02:57:13;2.80;;;2.60;;
635;SDS011;302;50.206;8.196;2023-11-19T02:59:39;2.50;;;2.30;;
635;SDS011;302;50.206;8.196;2023-11-19T03:02:06;2.70;;;2.50;;
635;SDS011;302;50.206;8.196;2023-11-19T03:04:32;3.20;;;2.60;;
635;SDS011;302;50.206;8.196;2023-11-19T03:06:57;2.33;;;2.13;;
635;SDS011;302;50.206;8.196;2023-11-19T03:09:23;2.30;;;2.20;;
635;SDS011;302;50.206;8.196;2023-11-19T03:11:49;1.92;;;1.75;;
635;SDS011;302;50.206;8.196;2023-11-19T03:14:14;1.90;;;1.70;;
635;SDS011;302;50.206;8.196;2023-11-19T03:16:39;1.80;;;1.60;;
635;SDS011;302;50.206;8.196;2023-11-19T03:19:05;2.03;;;1.20;;
635;SDS011;302;50.206;8.196;2023-11-19T03:21:30;2.40;;;1.40;;
635;SDS011;302;50.206;8.196;2023-11-19T03:23:56;1.40;;;1.20;;
635;SDS011;302;50.206;8.196;2023-11-19T03:26:21;1.93;;;1.83;;
635;SDS011;302;50.206;8.196;2023-11-19T03:28:47;1.70;;;1.60;;
635;SDS011;302;50.206;8.196;2023-11-19T03:31:12;1.67;;;1.58;;
635;SDS011;302;50.206;8.196;2023-11-19T03:33:37;1.70;;;1.60;;
635;SDS011;302;50.206;8.196;2023-11-19T03:36:02;1.60;;;1.50;;
635;SDS011;302;50.206;8.196;2023-11-19T03:38:27;1.80;;;1.70;;
635;SDS011;302;50.206;8.196;2023-11-19T03:40:53;2.13;;;1.42;;
635;SDS011;302;50.206;8.196;2023-11-19T03:43:18;1.90;;;1.80;;
635;SDS011;302;50.206;8.196;2023-11-19T03:45:44;1.88;;;1.73;;
635;SDS011;302;50.206;8.196;2023-11-19T03:48:09;1.57;;;1.40;;
635;SDS011;302;50.206;8.196;2023-11-19T03:50:34;1.47;;;1.37;;
635;SDS011;302;50.206;8.196;2023-11-19T03:53:00;1.20;;;1.10;;
635;SDS011;302;50.206;8.196;2023-11-19T03:55:25;1.20;;;1.03;;
635;SDS011;302;50.206;8.196;2023-11-19T03:57:50;1.95;;;1.00;;
635;SDS011;302;50.206;8.196;2023-11-19T04:00:15;1.77;;;0.80;;
635;SDS011;302;50.206;8.196;2023-11-19T04:02:40;1.13;;;1.00;;
635;SDS011;302;50.206;8.196;2023-11-19T04:05:06;1.00;;;0.77;;
635;SDS011;302;50.206;8.196;2023-11-19T04:07:34;1.10;;;1.00;;
635;SDS011;302;50.206;8.196;2023-11-19T04:10:00;1.10;;;1.00;;
635;SDS011;302;50.206;8.196;2023-11-19T04:12:25;0.93;;;0.70;;
635;SDS011;302;50.206;8.196;2023-11-19T04:14:50;1.17;;;0.77;;
635;SDS011;302;50.206;8.196;2023-11-19T04:17:15;1.03;;;0.90;;
635;SDS011;302;50.206;8.196;2023-11-19T04:19:40;1.00;;;0.85;;
635;SDS011;302;50.206;8.196;2023-11-19T04:22:07;1.17;;;1.07;;
635;SDS011;302;50.206;8.196;2023-11-19T04:24:32;1.00;;;0.70;;
635;SDS011;302;50.206;8.196;2023-11-19T04:26:57;1.20;;;1.07;;
635;SDS011;302;50.206;8.196;2023-11-19T04:29:23;0.90;;;0.70;;
635;SDS011;302;50.206;8.196;2023-11-19T04:31:48;1.05;;;0.77;;
635;SDS011;302;50.206;8.196;2023-11-19T04:34:13;0.90;;;0.63;;
635;SDS011;302;50.206;8.196;2023-11-19T04:36:38;1.10;;;0.80;;
635;SDS011;302;50.206;8.196;2023-11-19T04:39:04;1.00;;;0.80;;
635;SDS011;302;50.206;8.196;2023-11-19T04:41:46;1.00;;;0.90;;
635;SDS011;302;50.206;8.196;2023-11-19T04:44:13;0.90;;;0.73;;
635;SDS011;302;50.206;8.196;2023-11-19T04:46:38;0.90;;;0.68;;
635;SDS011;302;50.206;8.196;2023-11-19T04:49:03;0.90;;;0.60;;
635;SDS011;302;50.206;8.196;2023-11-19T04:51:29;0.90;;;0.70;;
635;SDS011;302;50.206;8.196;2023-11-19T04:53:54;1.45;;;0.80;;
635;SDS011;302;50.206;8.196;2023-11-19T04:56:20;1.00;;;0.90;;
635;SDS011;302;50.206;8.196;2023-11-19T04:58:47;1.00;;;0.80;;
635;SDS011;302;50.206;8.196;2023-11-19T05:01:15;1.33;;;0.90;;
635;SDS011;302;50.206;8.196;2023-11-19T05:03:43;0.95;;;0.73;;
635;SDS011;302;50.206;8.196;2023-11-19T05:06:08;1.00;;;0.63;;
635;SDS011;302;50.206;8.196;2023-11-19T05:08:33;1.03;;;0.80;;
635;SDS011;302;50.206;8.196;2023-11-19T05:10:59;1.10;;;1.00;;
635;SDS011;302;50.206;8.196;2023-11-19T05:13:24;1.13;;;0.90;;
635;SDS011;302;50.206;8.196;2023-11-19T05:15:49;0.90;;;0.60;;
635;SDS011;302;50.206;8.196;2023-11-19T05:18:15;0.90;;;0.50;;
635;SDS011;302;50.206;8.196;2023-11-19T05:20:40;2.80;;;0.90;;
635;SDS011;302;50.206;8.196;2023-11-19T05:23:05;0.80;;;0.60;;
635;SDS011;302;50.206;8.196;2023-11-19T05:25:30;1.00;;;0.70;;
635;SDS011;302;50.206;8.196;2023-11-19T05:27:55;0.80;;;0.40;;
635;SDS011;302;50.206;8.196;2023-11-19T05:30:21;1.10;;;0.53;;
635;SDS011;302;50.206;8.196;2023-11-19T05:32:46;1.07;;;0.80;;
635;SDS011;302;50.206;8.196;2023-11-19T05:35:11;1.00;;;0.70;;
635;SDS011;302;50.206;8.196;2023-11-19T05:37:36;1.00;;;0.63;;
635;SDS011;302;50.206;8.196;2023-11-19T05:40:01;1.07;;;0.70;;
635;SDS011;302;50.206;8.196;2023-11-19T05:42:28;0.90;;;0.70;;
635;SDS011;302;50.206;8.196;2023-11-19T05:44:54;1.47;;;0.80;;
635;SDS011;302;50.206;8.196;2023-11-19T05:47:19;1.17;;;0.80;;
635;SDS011;302;50.206;8.196;2023-11-19T05:49:44;1.10;;;0.70;;
635;SDS011;302;50.206;8.196;2023-11-19T05:52:09;1.40;;;1.10;;
635;SDS011;302;50.206;8.196;2023-11-19T05:54:35;1.55;;;0.90;;
635;SDS011;302;50.206;8.196;2023-11-19T05:57:04;1.05;;;0.75;;
635;SDS011;302;50.206;8.196;2023-11-19T05:59:29;2.00;;;0.80;;
635;SDS011;302;50.206;8.196;2023-11-19T06:01:55;2.57;;;1.00;;
635;SDS011;302;50.206;8.196;2023-11-19T06:04:20;0.90;;;0.77;;
635;SDS011;302;50.206;8.196;2023-11-19T06:06:45;1.40;;;0.63;;
635;SDS011;302;50.206;8.196;2023-11-19T06:09:11;1.02;;;0.88;;
635;SDS011;302;50.206;8.196;2023-11-19T06:11:37;1.20;;;0.80;;
635;SDS011;302;50.206;8.196;2023-11-19T06:14:02;1.42;;;0.80;;
635;SDS011;302;50.206;8.196;2023-11-19T06:16:30;1.10;;;1.00;;
635;SDS011;302;50.206;8.196;2023-11-19T06:18:55;1.30;;;1.15;;
635;SDS011;302;50.206;8.196;2023-11-19T06:21:20;1.20;;;0.90;;
635;SDS011;302;50.206;8.196;2023-11-19T06:23:46;1.13;;;1.00;;
635;SDS011;302;50.206;8.196;2023-11-19T06:26:11;1.10;;;0.90;;
635;SDS011;302;50.206;8.196;2023-11-19T06:28:36;1.38;;;0.90;;
635;SDS011;302;50.206;8.196;2023-11-19T06:31:01;1.63;;;0.90;;
635;SDS011;302;50.206;8.196;2023-11-19T06:33:28;1.35;;;1.02;;
635;SDS011;302;50.206;8.196;2023-11-19T06:35:53;1.97;;;1.17;;
635;SDS011;302;50.206;8.196;2023-11-19T06:38:19;1.60;;;1.30;;
635;SDS011;302;50.206;8.196;2023-11-19T06:40:44;1.42;;;1.10;;
635;SDS011;302;50.206;8.196;2023-11-19T06:43:10;2.50;;;1.53;;
635;SDS011;302;50.206;8.196;2023-11-19T06:45:35;1.52;;;1.33;;
635;SDS011;302;50.206;8.196;2023-11-19T06:48:02;1.50;;;1.40;;
635;SDS011;302;50.206;8.196;2023-11-19T06:50:29;1.48;;;1.38;;
635;SDS011;302;50.206;8.196;2023-11-19T06:52:54;2.30;;;1.60;;
635;SDS011;302;50.206;8.196;2023-11-19T06:55:19;2.83;;;1.40;;
635;SDS011;302;50.206;8.196;2023-11-19T06:57:45;3.20;;;1.63;;
635;SDS011;302;50.206;8.196;2023-11-19T07:00:10;2.37;;;1.93;;
635;SDS011;302;50.206;8.196;2023-11-19T07:02:36;3.08;;;1.83;;
635;SDS011;302;50.206;8.196;2023-11-19T07:05:01;1.83;;;1.50;;
635;SDS011;302;50.206;8.196;2023-11-19T07:07:29;2.00;;;1.58;;
635;SDS011;302;50.206;8.196;2023-11-19T07:09:55;2.33;;;1.70;;
635;SDS011;302;50.206;8.196;2023-11-19T07:12:20;2.75;;;1.77;;
635;SDS011;302;50.206;8.196;2023-11-19T07:14:45;1.97;;;1.57;;
635;SDS011;302;50.206;8.196;2023-11-19T07:17:11;3.43;;;1.77;;
635;SDS011;302;50.206;8.196;2023-11-19T07:19:36;2.28;;;1.60;;
635;SDS011;302;50.206;8.196;2023-11-19T07:22:03;4.05;;;2.08;;
635;SDS011;302;50.206;8.196;2023-11-19T07:24:28;2.27;;;1.50;;
635;SDS011;302;50.206;8.196;2023-11-19T07:26:53;2.00;;;1.80;;
635;SDS011;302;50.206;8.196;2023-11-19T07:29:19;3.97;;;1.97;;
635;SDS011;302;50.206;8.196;2023-11-19T07:31:44;3.97;;;2.00;;
635;SDS011;302;50.206;8.196;2023-11-19T07:34:09;3.88;;;2.30;;
635;SDS011;302;50.206;8.196;2023-11-19T07:36:35;4.72;;;2.13;;
635;SDS011;302;50.206;8.196;2023-11-19T07:39:01;3.17;;;2.27;;
635;SDS011;302;50.206;8.196;2023-11-19T07:41:26;3.30;;;3.00;;
635;SDS011;302;50.206;8.196;2023-11-19T07:43:51;3.28;;;2.53;;
635;SDS011;302;50.206;8.196;2023-11-19T07:46:17;4.18;;;2.60;;
635;SDS011;302;50.206;8.196;2023-11-19T07:48:45;3.15;;;2.85;;
635;SDS011;302;50.206;8.196;2023-11-19T07:51:12;4.15;;;2.78;;
635;SDS011;302;50.206;8.196;2023-11-19T07:53:37;5.07;;;3.30;;
635;SDS011;302;50.206;8.196;2023-11-19T07:56:03;10.53;;;2.60;;
635;SDS011;302;50.206;8.196;2023-11-19T07:58:28;2.47;;;2.17;;
635;SDS011;302;50.206;8.196;2023-11-19T08:00:54;5.10;;;2.70;;
635;SDS011;302;50.206;8.196;2023-11-19T08:03:19;3.63;;;2.33;;
635;SDS011;302;50.206;8.196;2023-11-19T08:05:44;3.60;;;2.38;;
635;SDS011;302;50.206;8.196;2023-11-19T08:08:10;2.43;;;2.20;;
635;SDS011;302;50.206;8.196;2023-11-19T08:10:35;4.37;;;2.27;;
635;SDS011;302;50.206;8.196;2023-11-19T08:13:00;4.40;;;3.00;;
635;SDS011;302;50.206;8.196;2023-11-19T08:15:25;5.63;;;2.17;;
635;SDS011;302;50.206;8.196;2023-11-19T08:17:50;4.23;;;2.30;;
635;SDS011;302;50.206;8.196;2023-11-19T08:20:16;3.97;;;2.20;;
635;SDS011;302;50.206;8.196;2023-11-19T08:22:41;3.43;;;2.43;;
635;SDS011;302;50.206;8.196;2023-11-19T08:25:06;4.50;;;3.07;;
635;SDS011;302;50.206;8.196;2023-11-19T08:27:32;4.23;;;2.40;;
635;SDS011;302;50.206;8.196;2023-11-19T08:29:57;3.30;;;1.70;;
635;SDS011;302;50.206;8.196;2023-11-19T08:32:26;4.10;;;2.10;;
635;SDS011;302;50.206;8.196;2023-11-19T08:34:51;5.68;;;2.50;;
635;SDS011;302;50.206;8.196;2023-11-19T08:37:16;4.30;;;2.60;;
635;SDS011;302;50.206;8.196;2023-11-19T08:39:45;3.17;;;2.00;;
635;SDS011;302;50.206;8.196;2023-11-19T08:42:11;3.35;;;2.45;;
635;SDS011;302;50.206;8.196;2023-11-19T08:44:36;3.37;;;1.87;;
635;SDS011;302;50.206;8.196;2023-11-19T08:47:02;3.13;;;2.10;;
635;SDS011;302;50.206;8.196;2023-11-19T08:49:27;7.10;;;2.40;;
635;SDS011;302;50.206;8.196;2023-11-19T08:51:52;4.40;;;2.10;;
635;SDS011;302;50.206;8.196;2023-11-19T08:54:17;4.80;;;2.22;;
635;SDS011;302;50.206;8.196;2023-11-19T08:56:42;4.40;;;2.08;;
635;SDS011;302;50.206;8.196;2023-11-19T08:59:07;6.53;;;1.97;;
635;SDS011;302;50.206;8.196;2023-11-19T09:01:33;6.82;;;2.20;;
635;SDS011;302;50.206;8.196;2023-11-19T09:03:58;3.63;;;2.00;;
635;SDS011;302;50.206;8.196;2023-11-19T09:06:24;10.20;;;2.50;;
635;SDS011;302;50.206;8.196;2023-11-19T09:08:49;7.20;;;3.00;;
635;SDS011;302;50.206;8.196;2023-11-19T09:11:14;3.67;;;2.33;;
635;SDS011;302;50.206;8.196;2023-11-19T09:13:39;7.30;;;2.03;;
635;SDS011;302;50.206;8.196;2023-11-19T09:16:04;3.95;;;1.80;;
635;SDS011;302;50.206;8.196;2023-11-19T09:18:30;5.87;;;2.50;;
635;SDS011;302;50.206;8.196;2023-11-19T09:20:55;11.33;;;3.23;;
635;SDS011;302;50.206;8.196;2023-11-19T09:23:20;6.63;;;2.10;;
635;SDS011;302;50.206;8.196;2023-11-19T09:25:45;3.73;;;1.93;;
635;SDS011;302;50.206;8.196;2023-11-19T09:28:10;3.07;;;2.77;;
635;SDS011;302;50.206;8.196;2023-11-19T09:30:36;4.83;;;2.20;;
635;SDS011;302;50.206;8.196;2023-11-19T09:33:01;9.50;;;2.37;;
635;SDS011;302;50.206;8.196;2023-11-19T09:35:26;5.23;;;2.33;;
635;SDS011;302;50.206;8.196;2023-11-19T09:37:51;8.30;;;3.50;;
635;SDS011;302;50.206;8.196;2023-11-19T09:40:16;6.78;;;2.35;;
635;SDS011;302;50.206;8.196;2023-11-19T09:42:43;7.55;;;2.22;;
635;SDS011;302;50.206;8.196;2023-11-19T09:45:12;5.75;;;2.40;;
635;SDS011;302;50.206;8.196;2023-11-19T09:47:38;5.13;;;1.92;;
635;SDS011;302;50.206;8.196;2023-11-19T09:50:03;5.07;;;2.20;;
635;SDS011;302;50.206;8.196;2023-11-19T09:52:30;5.88;;;2.10;;
635;SDS011;302;50.206;8.196;2023-11-19T09:54:55;9.93;;;2.67;;
635;SDS011;302;50.206;8.196;2023-11-19T09:57:20;5.47;;;2.35;;
635;SDS011;302;50.206;8.196;2023-11-19T09:59:45;5.90;;;1.93;;
635;SDS011;302;50.206;8.196;2023-11-19T10:02:11;4.67;;;2.33;;
635;SDS011;302;50.206;8.196;2023-11-19T10:04:37;5.50;;;2.07;;
635;SDS011;302;50.206;8.196;2023-11-19T10:07:03;5.13;;;2.53;;
635;SDS011;302;50.206;8.196;2023-11-19T10:09:28;8.83;;;2.97;;
635;SDS011;302;50.206;8.196;2023-11-19T10:11:54;3.30;;;2.05;;
635;SDS011;302;50.206;8.196;2023-11-19T10:14:20;6.20;;;2.30;;
635;SDS011;302;50.206;8.196;2023-11-19T10:16:47;4.95;;;2.30;;
635;SDS011;302;50.206;8.196;2023-11-19T10:19:18;9.10;;;2.20;;
635;SDS011;302;50.206;8.196;2023-11-19T10:21:44;5.50;;;2.60;;
635;SDS011;302;50.206;8.196;2023-11-19T10:24:11;5.95;;;1.90;;
635;SDS011;302;50.206;8.196;2023-11-19T10:26:36;5.10;;;2.10;;
635;SDS011;302;50.206;8.196;2023-11-19T10:29:01;5.43;;;2.43;;
635;SDS011;302;50.206;8.196;2023-11-19T10:31:27;7.87;;;2.40;;
635;SDS011;302;50.206;8.196;2023-11-19T10:33:52;6.73;;;2.03;;
635;SDS011;302;50.206;8.196;2023-11-19T10:36:17;7.27;;;2.30;;
635;SDS011;302;50.206;8.196;2023-11-19T10:38:53;5.00;;;2.70;;
635;SDS011;302;50.206;8.196;2023-11-19T10:41:27;3.95;;;2.20;;
635;SDS011;302;50.206;8.196;2023-11-19T10:43:53;8.20;;;1.80;;
635;SDS011;302;50.206;8.196;2023-11-19T10:46:18;7.33;;;2.03;;
635;SDS011;302;50.206;8.196;2023-11-19T10:48:47;6.63;;;1.65;;
635;SDS011;302;50.206;8.196;2023-11-19T10:51:13;3.97;;;1.70;;
635;SDS011;302;50.206;8.196;2023-11-19T10:53:39;7.88;;;2.00;;
635;SDS011;302;50.206;8.196;2023-11-19T10:56:10;5.47;;;2.25;;
635;SDS011;302;50.206;8.196;2023-11-19T10:58:35;5.85;;;1.92;;
635;SDS011;302;50.206;8.196;2023-11-19T11:01:03;8.85;;;2.60;;
635;SDS011;302;50.206;8.196;2023-11-19T11:03:35;5.45;;;2.20;;
635;SDS011;302;50.206;8.196;2023-11-19T11:06:04;6.22;;;2.60;;
635;SDS011;302;50.206;8.196;2023-11-19T11:08:29;11.67;;;2.60;;
635;SDS011;302;50.206;8.196;2023-11-19T11:10:55;6.90;;;2.43;;
635;SDS011;302;50.206;8.196;2023-11-19T11:13:24;7.57;;;2.40;;
635;SDS011;302;50.206;8.196;2023-11-19T11:15:49;6.20;;;2.47;;
635;SDS011;302;50.206;8.196;2023-11-19T11:18:15;7.57;;;2.17;;
635;SDS011;302;50.206;8.196;2023-11-19T11:20:40;5.47;;;2.38;;
635;SDS011;302;50.206;8.196;2023-11-19T11:23:11;8.50;;;2.93;;
635;SDS011;302;50.206;8.196;2023-11-19T11:28:36;7.10;;;3.10;;
635;SDS011;302;50.206;8.196;2023-11-19T11:36:19;8.70;;;2.60;;
635;SDS011;302;50.206;8.196;2023-11-19T11:38:45;5.45;;;2.10;;
635;SDS011;302;50.206;8.196;2023-11-19T11:43:59;6.05;;;2.17;;
635;SDS011;302;50.206;8.196;2023-11-19T11:49:04;6.13;;;1.90;;
635;SDS011;302;50.206;8.196;2023-11-19T11:51:57;9.95;;;2.42;;
635;SDS011;302;50.206;8.196;2023-11-19T11:57:03;7.15;;;2.08;;
635;SDS011;302;50.206;8.196;2023-11-19T11:59:36;5.70;;;2.03;;
635;SDS011;302;50.206;8.196;2023-11-19T12:02:01;9.98;;;2.10;;
635;SDS011;302;50.206;8.196;2023-11-19T12:04:28;5.05;;;1.75;;
635;SDS011;302;50.206;8.196;2023-11-19T12:07:12;6.40;;;2.17;;
635;SDS011;302;50.206;8.196;2023-11-19T12:09:39;6.82;;;1.90;;
635;SDS011;302;50.206;8.196;2023-11-19T12:17:42;6.75;;;2.50;;
635;SDS011;302;50.206;8.196;2023-11-19T12:20:09;6.13;;;1.90;;
635;SDS011;302;50.206;8.196;2023-11-19T12:22:39;3.95;;;1.80;;
635;SDS011;302;50.206;8.196;2023-11-19T12:25:05;6.25;;;1.85;;
635;SDS011;302;50.206;8.196;2023-11-19T12:27:30;3.78;;;1.52;;
635;SDS011;302;50.206;8.196;2023-11-19T12:29:56;4.23;;;2.10;;
635;SDS011;302;50.206;8.196;2023-11-19T12:32:22;4.63;;;2.00;;
635;SDS011;302;50.206;8.196;2023-11-19T12:34:47;5.07;;;2.30;;
635;SDS011;302;50.206;8.196;2023-11-19T12:37:12;5.85;;;1.77;;
635;SDS011;302;50.206;8.196;2023-11-19T12:39:37;4.40;;;1.53;;
635;SDS011;302;50.206;8.196;2023-11-19T12:42:02;2.80;;;1.60;;
635;SDS011;302;50.206;8.196;2023-11-19T12:44:27;9.23;;;3.00;;
635;SDS011;302;50.206;8.196;2023-11-19T12:47:00;6.40;;;2.17;;
635;SDS011;302;50.206;8.196;2023-11-19T12:49:26;2.63;;;1.80;;
635;SDS011;302;50.206;8.196;2023-11-19T12:51:51;7.45;;;2.33;;
635;SDS011;302;50.206;8.196;2023-11-19T12:54:16;5.13;;;2.10;;
635;SDS011;302;50.206;8.196;2023-11-19T12:56:51;4.95;;;1.90;;
635;SDS011;302;50.206;8.196;2023-11-19T12:59:16;5.20;;;1.85;;
635;SDS011;302;50.206;8.196;2023-11-19T13:01:41;5.60;;;2.00;;
635;SDS011;302;50.206;8.196;2023-11-19T13:04:18;4.13;;;1.70;;
635;SDS011;302;50.206;8.196;2023-11-19T13:06:44;4.77;;;1.70;;
635;SDS011;302;50.206;8.196;2023-11-19T13:09:12;4.20;;;2.00;;
635;SDS011;302;50.206;8.196;2023-11-19T13:11:46;3.85;;;2.15;;
635;SDS011;302;50.206;8.196;2023-11-19T13:14:11;4.23;;;1.33;;
635;SDS011;302;50.206;8.196;2023-11-19T13:16:37;5.93;;;1.93;;
635;SDS011;302;50.206;8.196;2023-11-19T13:19:02;4.80;;;1.70;;
635;SDS011;302;50.206;8.196;2023-11-19T13:21:27;2.10;;;1.27;;
635;SDS011;302;50.206;8.196;2023-11-19T13:23:53;5.77;;;1.80;;
635;SDS011;302;50.206;8.196;2023-11-19T13:26:18;7.00;;;1.73;;
635;SDS011;302;50.206;8.196;2023-11-19T13:28:43;4.20;;;2.20;;
635;SDS011;302;50.206;8.196;2023-11-19T13:31:08;4.90;;;1.60;;
635;SDS011;302;50.206;8.196;2023-11-19T13:33:35;4.43;;;2.08;;
635;SDS011;302;50.206;8.196;2023-11-19T13:36:01;3.20;;;1.60;;
635;SDS011;302;50.206;8.196;2023-11-19T13:38:30;5.68;;;1.90;;
635;SDS011;302;50.206;8.196;2023-11-19T13:40:56;4.80;;;1.77;;
635;SDS011;302;50.206;8.196;2023-11-19T13:43:21;8.35;;;1.85;;
635;SDS011;302;50.206;8.196;2023-11-19T13:45:46;5.97;;;2.05;;
635;SDS011;302;50.206;8.196;2023-11-19T13:48:11;3.87;;;2.03;;
635;SDS011;302;50.206;8.196;2023-11-19T13:50:37;3.97;;;1.53;;
635;SDS011;302;50.206;8.196;2023-11-19T13:53:02;4.35;;;1.40;;
635;SDS011;302;50.206;8.196;2023-11-19T13:55:27;6.60;;;2.22;;
635;SDS011;302;50.206;8.196;2023-11-19T13:57:52;5.83;;;1.90;;
635;SDS011;302;50.206;8.196;2023-11-19T14:00:18;8.60;;;1.87;;
635;SDS011;302;50.206;8.196;2023-11-19T14:02:44;4.40;;;1.67;;
635;SDS011;302;50.206;8.196;2023-11-19T14:05:09;2.95;;;1.40;;
635;SDS011;302;50.206;8.196;2023-11-19T14:07:38;5.20;;;2.25;;
635;SDS011;302;50.206;8.196;2023-11-19T14:10:04;4.30;;;1.50;;
635;SDS011;302;50.206;8.196;2023-11-19T14:12:30;3.42;;;2.00;;
635;SDS011;302;50.206;8.196;2023-11-19T14:14:56;4.80;;;1.70;;
635;SDS011;302;50.206;8.196;2023-11-19T14:17:21;4.30;;;1.42;;
635;SDS011;302;50.206;8.196;2023-11-19T14:19:46;4.73;;;1.63;;
635;SDS011;302;50.206;8.196;2023-11-19T14:22:11;3.42;;;1.63;;
635;SDS011;302;50.206;8.196;2023-11-19T14:24:36;7.20;;;1.80;;
635;SDS011;302;50.206;8.196;2023-11-19T14:27:02;4.57;;;2.23;;
635;SDS011;302;50.206;8.196;2023-11-19T14:29:27;4.77;;;2.07;;
635;SDS011;302;50.206;8.196;2023-11-19T14:31:54;4.50;;;2.05;;
635;SDS011;302;50.206;8.196;2023-11-19T14:34:20;5.67;;;1.70;;
635;SDS011;302;50.206;8.196;2023-11-19T14:36:45;3.40;;;1.23;;
635;SDS011;302;50.206;8.196;2023-11-19T14:39:10;6.93;;;2.07;;
635;SDS011;302;50.206;8.196;2023-11-19T14:41:35;8.00;;;1.67;;
635;SDS011;302;50.206;8.196;2023-11-19T14:44:00;4.45;;;1.63;;
635;SDS011;302;50.206;8.196;2023-11-19T14:46:26;4.40;;;1.87;;
635;SDS011;302;50.206;8.196;2023-11-19T14:48:52;6.80;;;1.80;;
635;SDS011;302;50.206;8.196;2023-11-19T14:51:17;4.25;;;1.50;;
635;SDS011;302;50.206;8.196;2023-11-19T14:53:42;4.15;;;2.00;;
635;SDS011;302;50.206;8.196;2023-11-19T14:56:10;3.05;;;1.70;;
635;SDS011;302;50.206;8.196;2023-11-19T14:58:35;4.82;;;1.90;;
635;SDS011;302;50.206;8.196;2023-11-19T15:01:00;6.47;;;1.90;;
635;SDS011;302;50.206;8.196;2023-11-19T15:03:28;7.30;;;2.05;;
635;SDS011;302;50.206;8.196;2023-11-19T15:05:53;4.00;;;2.15;;
635;SDS011;302;50.206;8.196;2023-11-19T15:08:18;3.53;;;1.60;;
635;SDS011;302;50.206;8.196;2023-11-19T15:10:43;4.20;;;2.30;;
635;SDS011;302;50.206;8.196;2023-11-19T15:13:10;7.22;;;2.00;;
635;SDS011;302;50.206;8.196;2023-11-19T15:15:35;11.27;;;2.47;;
635;SDS011;302;50.206;8.196;2023-11-19T15:18:00;4.43;;;2.10;;
635;SDS011;302;50.206;8.196;2023-11-19T15:20:25;3.03;;;1.75;;
635;SDS011;302;50.206;8.196;2023-11-19T15:22:54;4.78;;;2.60;;
635;SDS011;302;50.206;8.196;2023-11-19T15:25:20;5.65;;;2.53;;
635;SDS011;302;50.206;8.196;2023-11-19T15:27:45;4.70;;;2.42;;
635;SDS011;302;50.206;8.196;2023-11-19T15:30:11;3.67;;;2.00;;
635;SDS011;302;50.206;8.196;2023-11-19T15:32:36;3.70;;;2.20;;
635;SDS011;302;50.206;8.196;2023-11-19T15:35:01;7.53;;;3.43;;
635;SDS011;302;50.206;8.196;2023-11-19T15:37:27;5.95;;;3.33;;
635;SDS011;302;50.206;8.196;2023-11-19T15:39:54;6.72;;;2.97;;
635;SDS011;302;50.206;8.196;2023-11-19T15:42:19;5.60;;;1.87;;
635;SDS011;302;50.206;8.196;2023-11-19T15:44:44;5.37;;;1.70;;
635;SDS011;302;50.206;8.196;2023-11-19T15:47:10;4.40;;;1.53;;
635;SDS011;302;50.206;8.196;2023-11-19T15:49:35;5.80;;;1.90;;
635;SDS011;302;50.206;8.196;2023-11-19T15:52:01;6.53;;;2.28;;
635;SDS011;302;50.206;8.196;2023-11-19T15:54:27;7.67;;;2.27;;
635;SDS011;302;50.206;8.196;2023-11-19T15:56:52;5.40;;;1.83;;